Terminal Aerodrome Forecast
Issued by NWS

Home | Current Version | Previous Version | Graphics & Text | Print | Product List | Glossary On
Versions: 1 2 3 4 5 6 7 8 9 10 11 12
527
FTUS41 KCLE 210144 AAA
TAFFDY
TAF AMD
KFDY 210144Z 2102/2124 25012G20KT P6SM VCTS SCT050CB OVC100
      TEMPO 2102/2103 2SM TSRA BKN025CB OVC050
     FM210300 27012G20KT P6SM FEW025 SCT050
     FM210900 27012G20KT P6SM OVC025
     FM211900 30012G20KT P6SM OVC025=

USA.gov is the U.S. government's official web portal to all federal, state and local government web resources and services.